createdAt,value
2018-08-30T00:04:01.135Z,61.60
2018-08-30T00:08:04.840Z,60.70
2018-08-30T00:12:08.536Z,65.00
2018-08-30T00:16:12.235Z,63.60
2018-08-30T00:20:15.882Z,63.50
2018-08-30T00:24:19.516Z,61.70
2018-08-30T00:28:23.213Z,63.70
2018-08-30T00:32:26.928Z,65.00
2018-08-30T00:36:30.635Z,65.20
2018-08-30T00:40:34.267Z,63.90
2018-08-30T00:44:37.960Z,64.50
2018-08-30T00:48:41.623Z,64.40
2018-08-30T00:52:45.275Z,64.40
2018-08-30T00:56:48.948Z,66.70
2018-08-30T01:00:52.587Z,67.30
2018-08-30T01:04:56.256Z,69.90
2018-08-30T01:08:59.952Z,69.40
2018-08-30T01:13:03.748Z,67.00
2018-08-30T01:17:07.420Z,66.90
2018-08-30T01:21:11.049Z,67.30
2018-08-30T01:25:14.708Z,68.20
2018-08-30T01:29:18.527Z,67.40
2018-08-30T01:33:22.235Z,67.50
2018-08-30T01:37:26.002Z,67.30
2018-08-30T01:41:29.703Z,71.20
2018-08-30T01:45:33.400Z,68.40
2018-08-30T01:49:37.088Z,69.10
2018-08-30T01:53:40.814Z,67.00
2018-08-30T01:57:44.534Z,71.10
2018-08-30T02:01:48.178Z,68.80
2018-08-30T02:05:51.823Z,70.30
2018-08-30T02:09:55.459Z,69.20
2018-08-30T02:13:59.088Z,70.10
2018-08-30T02:18:02.752Z,67.50
2018-08-30T02:22:06.418Z,69.20
2018-08-30T02:26:10.101Z,67.20
2018-08-30T02:30:13.752Z,67.40
2018-08-30T02:34:17.436Z,69.80
2018-08-30T02:38:21.173Z,70.50
2018-08-30T02:42:24.796Z,70.20
2018-08-30T02:46:28.492Z,69.80
2018-08-30T02:50:32.269Z,67.30
2018-08-30T02:54:35.928Z,68.30
2018-08-30T02:58:39.589Z,68.40
2018-08-30T03:02:43.196Z,67.00
2018-08-30T03:06:46.851Z,68.40
2018-08-30T03:10:50.512Z,69.70
2018-08-30T03:15:05.437Z,70.20
2018-08-30T03:19:09.093Z,69.90
2018-08-30T03:23:12.747Z,69.40
2018-08-30T03:27:16.390Z,69.70
2018-08-30T03:31:20.048Z,72.30
2018-08-30T03:35:23.692Z,70.80
2018-08-30T03:39:27.335Z,71.70
2018-08-30T03:43:30.987Z,72.40
2018-08-30T03:47:34.600Z,72.80
2018-08-30T03:51:38.247Z,73.20
2018-08-30T03:55:41.956Z,71.20
2018-08-30T03:59:45.618Z,73.40
2018-08-30T04:03:49.278Z,73.70
2018-08-30T04:07:52.914Z,73.30
2018-08-30T04:11:56.568Z,73.90
2018-08-30T04:16:00.223Z,72.70
2018-08-30T04:20:03.934Z,74.90
2018-08-30T04:24:08.732Z,71.30
2018-08-30T04:28:12.400Z,72.50
2018-08-30T04:32:16.062Z,71.20
2018-08-30T04:36:19.731Z,71.10
2018-08-30T04:40:23.407Z,70.90
2018-08-30T04:44:27.040Z,71.80
2018-08-30T04:48:30.647Z,71.30
2018-08-30T04:52:34.307Z,71.80
2018-08-30T04:56:37.985Z,72.50
2018-08-30T05:00:41.641Z,74.70
2018-08-30T05:04:45.305Z,72.40
2018-08-30T05:08:48.930Z,73.80
2018-08-30T05:12:52.744Z,72.50
2018-08-30T05:16:56.388Z,73.50
2018-08-30T05:21:00.049Z,74.10
2018-08-30T05:25:03.753Z,73.80
2018-08-30T05:29:07.407Z,74.50
2018-08-30T05:33:11.056Z,74.00
2018-08-30T05:37:14.723Z,74.80
2018-08-30T05:41:18.378Z,75.40
2018-08-30T05:45:22.071Z,74.10
2018-08-30T05:49:25.709Z,76.40
2018-08-30T05:53:29.364Z,74.00
2018-08-30T05:57:33.031Z,74.00
2018-08-30T06:01:36.781Z,75.70
2018-08-30T06:05:40.443Z,73.30
2018-08-30T06:09:44.132Z,73.70
2018-08-30T06:13:47.789Z,74.40
2018-08-30T06:17:51.471Z,76.30
2018-08-30T06:21:55.164Z,74.40
2018-08-30T06:25:58.908Z,72.30
2018-08-30T06:30:02.784Z,73.10
2018-08-30T06:34:06.501Z,74.70
2018-08-30T06:38:10.154Z,75.40
2018-08-30T06:42:13.824Z,75.40
2018-08-30T06:46:17.479Z,75.10
2018-08-30T06:50:21.192Z,74.20
2018-08-30T06:54:24.845Z,74.10
2018-08-30T06:58:28.971Z,73.30
2018-08-30T07:02:32.597Z,73.60
2018-08-30T07:06:36.251Z,74.30
2018-08-30T07:10:41.345Z,74.30
2018-08-30T07:14:45.068Z,74.30
2018-08-30T07:18:48.738Z,75.10
2018-08-30T07:22:52.396Z,75.70
2018-08-30T07:26:56.080Z,74.80
2018-08-30T07:30:59.704Z,73.70
2018-08-30T07:35:03.575Z,75.20
2018-08-30T07:39:09.341Z,75.90
2018-08-30T07:43:13.032Z,75.20
2018-08-30T07:47:16.737Z,75.90
2018-08-30T07:51:20.343Z,75.30
2018-08-30T07:55:24.000Z,75.40
2018-08-30T07:59:27.705Z,76.10
2018-08-30T08:03:31.355Z,75.90
2018-08-30T08:07:35.084Z,74.80
2018-08-30T08:11:38.839Z,74.70
2018-08-30T08:15:42.620Z,75.70
2018-08-30T08:19:46.275Z,75.60
2018-08-30T08:23:49.949Z,75.40
2018-08-30T08:27:53.680Z,74.90
2018-08-30T08:31:57.309Z,75.60
2018-08-30T08:36:01.018Z,74.80
2018-08-30T08:40:04.759Z,74.20
2018-08-30T08:44:08.487Z,74.20
2018-08-30T08:48:12.100Z,74.80
2018-08-30T08:52:15.751Z,74.40
2018-08-30T08:56:19.403Z,73.60
2018-08-30T09:00:23.063Z,73.10
2018-08-30T09:04:26.724Z,72.50
2018-08-30T09:08:30.384Z,72.60
2018-08-30T09:12:34.043Z,72.50
2018-08-30T09:16:37.735Z,72.50
2018-08-30T09:20:41.401Z,72.70
2018-08-30T09:24:45.060Z,72.60
2018-08-30T09:28:48.761Z,72.40
2018-08-30T09:32:52.423Z,72.00
2018-08-30T09:36:56.096Z,72.30
2018-08-30T09:40:59.792Z,71.90
2018-08-30T09:45:03.523Z,71.80
2018-08-30T09:49:07.232Z,71.60
2018-08-30T09:53:11.571Z,71.20
2018-08-30T09:57:16.025Z,71.00
2018-08-30T10:01:25.009Z,70.90
2018-08-30T10:05:28.681Z,70.90
2018-08-30T10:09:33.558Z,70.40
2018-08-30T10:13:39.204Z,69.50
2018-08-30T10:17:45.191Z,70.20
2018-08-30T10:21:53.220Z,69.50
2018-08-30T10:25:59.256Z,69.90
2018-08-30T10:30:04.588Z,69.30
2018-08-30T10:34:09.661Z,69.40
2018-08-30T10:38:13.345Z,69.00
2018-08-30T10:42:17.028Z,68.50
2018-08-30T10:46:21.298Z,68.30
2018-08-30T10:50:24.932Z,67.40
2018-08-30T10:54:28.581Z,67.20
2018-08-30T10:58:32.306Z,67.80
2018-08-30T11:02:36.053Z,67.60
2018-08-30T11:06:39.875Z,67.60
2018-08-30T11:10:43.528Z,67.30
2018-08-30T11:14:47.273Z,67.00
2018-08-30T11:18:50.952Z,65.80
2018-08-30T11:22:54.611Z,65.80
2018-08-30T11:26:58.334Z,66.40
2018-08-30T11:31:01.975Z,66.40
2018-08-30T11:35:05.902Z,65.90
2018-08-30T11:39:09.750Z,65.00
2018-08-30T11:43:13.459Z,65.00
2018-08-30T11:47:17.148Z,63.90
2018-08-30T11:51:20.828Z,64.00
2018-08-30T11:55:24.480Z,63.00
2018-08-30T11:59:28.131Z,63.60
2018-08-30T12:03:32.667Z,63.10
2018-08-30T12:07:36.707Z,64.70
2018-08-30T12:11:40.931Z,65.10
2018-08-30T12:15:44.526Z,65.10
2018-08-30T12:19:48.235Z,65.60
2018-08-30T12:23:51.895Z,66.50
2018-08-30T12:27:55.590Z,67.20
2018-08-30T12:31:59.313Z,68.50
2018-08-30T12:36:03.212Z,69.30
2018-08-30T12:40:06.966Z,68.60
2018-08-30T12:44:10.713Z,68.50
2018-08-30T12:48:14.373Z,69.30
2018-08-30T12:52:18.122Z,68.90
2018-08-30T12:56:21.735Z,68.40
2018-08-30T13:00:25.482Z,67.50
2018-08-30T13:04:29.355Z,66.00
2018-08-30T13:08:33.276Z,65.70
2018-08-30T13:12:36.885Z,67.10
2018-08-30T13:16:40.781Z,68.60
2018-08-30T13:20:44.687Z,68.60
2018-08-30T13:24:48.496Z,67.80
2018-08-30T13:28:52.064Z,68.60
2018-08-30T13:32:56.060Z,68.50
2018-08-30T13:36:59.927Z,70.70
2018-08-30T13:41:03.589Z,70.00
2018-08-30T13:45:07.394Z,68.90
2018-08-30T13:49:11.888Z,69.50
2018-08-30T13:53:15.740Z,69.90
2018-08-30T13:57:19.835Z,70.80
2018-08-30T14:01:23.277Z,70.40
2018-08-30T14:05:26.759Z,70.30
2018-08-30T14:09:30.382Z,70.40
2018-08-30T14:13:34.421Z,70.40
2018-08-30T14:17:37.736Z,69.70
2018-08-30T14:21:41.375Z,70.50
2018-08-30T14:25:45.174Z,70.70
2018-08-30T14:29:48.740Z,70.90
2018-08-30T14:33:52.380Z,71.00
2018-08-30T14:37:56.034Z,72.10
2018-08-30T14:41:59.689Z,70.60
2018-08-30T14:46:03.419Z,71.60
2018-08-30T14:50:07.412Z,71.20
2018-08-30T14:54:11.223Z,70.90
2018-08-30T14:58:15.808Z,71.70
2018-08-30T15:02:19.491Z,71.70
2018-08-30T15:06:23.160Z,72.90
2018-08-30T15:10:26.788Z,71.50
2018-08-30T15:14:30.475Z,71.80
2018-08-30T15:18:34.237Z,71.70
2018-08-30T15:22:37.874Z,71.80
2018-08-30T15:26:41.635Z,72.20
2018-08-30T15:30:45.309Z,71.50
2018-08-30T15:34:48.930Z,71.50
2018-08-30T15:38:52.608Z,71.40
2018-08-30T15:42:56.312Z,70.70
2018-08-30T15:47:00.191Z,71.00
2018-08-30T15:51:03.931Z,70.80
2018-08-30T15:55:07.634Z,71.20
2018-08-30T15:59:11.523Z,71.20
2018-08-30T16:03:15.028Z,70.40
2018-08-30T16:07:18.668Z,70.20
2018-08-30T16:11:22.370Z,69.80
2018-08-30T16:15:26.017Z,69.90
2018-08-30T16:19:29.678Z,69.60
2018-08-30T16:23:34.839Z,70.00
2018-08-30T16:27:38.504Z,69.40
2018-08-30T16:31:42.161Z,69.60
2018-08-30T16:35:45.865Z,68.80
2018-08-30T16:39:49.597Z,69.30
2018-08-30T16:43:53.215Z,69.10
2018-08-30T16:47:56.840Z,69.20
2018-08-30T16:52:00.514Z,69.70
2018-08-30T16:56:04.263Z,69.10
2018-08-30T17:00:08.013Z,68.90
2018-08-30T17:04:11.647Z,68.60
2018-08-30T17:08:15.329Z,68.50
2018-08-30T17:12:19.032Z,68.30
2018-08-30T17:16:22.713Z,67.40
2018-08-30T17:20:37.979Z,67.60
2018-08-30T17:24:41.637Z,67.50
2018-08-30T17:28:45.390Z,67.50
2018-08-30T17:32:49.039Z,67.30
2018-08-30T17:36:52.818Z,67.40
2018-08-30T17:40:56.457Z,67.30
2018-08-30T17:45:00.125Z,67.40
2018-08-30T17:49:03.813Z,67.30
2018-08-30T17:53:07.499Z,67.30
2018-08-30T17:57:11.176Z,67.10
2018-08-30T18:01:14.966Z,67.10
2018-08-30T18:05:18.572Z,67.30
2018-08-30T18:09:22.283Z,67.00
2018-08-30T18:13:25.944Z,66.80
2018-08-30T18:17:29.626Z,66.70
2018-08-30T18:21:33.268Z,66.50
2018-08-30T18:25:37.059Z,66.50
2018-08-30T18:29:40.771Z,66.50
2018-08-30T18:33:44.469Z,66.40
2018-08-30T18:37:48.112Z,66.50
2018-08-30T18:41:51.762Z,66.40
2018-08-30T18:45:55.453Z,66.30
2018-08-30T18:49:59.197Z,66.20
2018-08-30T18:54:02.884Z,66.20
2018-08-30T18:58:06.696Z,66.20
2018-08-30T19:02:10.339Z,66.30
2018-08-30T19:06:14.084Z,66.20
2018-08-30T19:10:17.745Z,66.10
2018-08-30T19:14:21.411Z,65.80
2018-08-30T19:18:30.423Z,65.50
2018-08-30T19:22:34.123Z,65.30
2018-08-30T19:26:37.788Z,65.10
2018-08-30T19:30:41.436Z,65.00
2018-08-30T19:34:45.079Z,65.10
2018-08-30T19:38:48.740Z,65.10
2018-08-30T19:42:52.371Z,65.10
2018-08-30T19:46:56.022Z,65.20
2018-08-30T19:50:59.631Z,65.20
2018-08-30T19:55:03.309Z,65.00
2018-08-30T19:59:06.941Z,65.00
2018-08-30T20:03:10.582Z,65.00
2018-08-30T20:07:14.214Z,65.00
2018-08-30T20:11:17.849Z,65.00
2018-08-30T20:15:21.529Z,65.20
2018-08-30T20:19:25.269Z,65.00
2018-08-30T20:23:28.932Z,65.00
2018-08-30T20:27:32.607Z,65.00
2018-08-30T20:31:36.310Z,64.90
2018-08-30T20:35:40.015Z,65.00
2018-08-30T20:39:43.683Z,65.00
2018-08-30T20:43:47.332Z,65.00
2018-08-30T20:47:50.963Z,64.90
2018-08-30T20:51:54.634Z,65.00
2018-08-30T20:55:58.263Z,65.00
2018-08-30T21:00:01.995Z,64.90
2018-08-30T21:04:05.791Z,65.10
2018-08-30T21:08:09.428Z,65.20
2018-08-30T21:12:13.080Z,65.10
2018-08-30T21:16:16.736Z,65.30
2018-08-30T21:20:20.435Z,65.50
2018-08-30T21:24:24.125Z,65.20
2018-08-30T21:28:27.763Z,65.10
2018-08-30T21:32:31.432Z,65.20
2018-08-30T21:36:35.079Z,65.20
2018-08-30T21:40:38.766Z,65.30
2018-08-30T21:44:42.436Z,65.20
2018-08-30T21:48:46.074Z,65.20
2018-08-30T21:52:49.736Z,65.20
2018-08-30T21:56:53.381Z,65.20
2018-08-30T22:00:57.060Z,65.20
2018-08-30T22:05:00.728Z,65.20
2018-08-30T22:09:06.125Z,65.20
2018-08-30T22:13:09.833Z,65.30
2018-08-30T22:17:13.500Z,65.40
2018-08-30T22:21:17.188Z,65.30
2018-08-30T22:25:20.897Z,65.30
2018-08-30T22:29:24.597Z,65.40
2018-08-30T22:33:28.326Z,65.40
2018-08-30T22:37:32.050Z,65.60
2018-08-30T22:41:35.784Z,65.40
2018-08-30T22:45:39.421Z,65.30
2018-08-30T22:49:43.115Z,65.30
2018-08-30T22:53:46.891Z,65.50
2018-08-30T22:57:50.574Z,65.50
2018-08-30T23:01:54.296Z,65.50
2018-08-30T23:05:57.937Z,65.40
2018-08-30T23:10:01.691Z,65.40
2018-08-30T23:14:05.440Z,65.40
2018-08-30T23:18:09.144Z,65.50
2018-08-30T23:22:12.827Z,65.50
2018-08-30T23:26:16.520Z,66.10
2018-08-30T23:30:20.205Z,65.80
2018-08-30T23:34:23.858Z,65.70
2018-08-30T23:38:27.573Z,65.70
2018-08-30T23:42:31.174Z,66.60
2018-08-30T23:46:34.895Z,66.30
2018-08-30T23:50:38.529Z,66.10
2018-08-30T23:54:42.171Z,65.90
2018-08-30T23:58:57.148Z,65.80
